Time;durP1;ratioP1;P1;durP2;ratioP2;P2;SDS_P1;SDS_P2;PMS_P1;PMS_P2;Temp;Humidity;BMP_temperature;BMP_pressure;BME280_temperature;BME280_humidity;BME280_pressure;Samples;Min_cycle;Max_cycle;Signal;HPM_P1;HPM_P2
2023/01/03 00:00:09;;;;;;;321.85;72.20;;;1.90;99.90;;;;;;4882244;29;20025;-77
2023/01/03 00:02:35;;;;;;;336.85;68.95;;;2.00;99.90;;;;;;4885040;29;20029;-76
2023/01/03 00:05:01;;;;;;;309.23;63.78;;;2.00;99.90;;;;;;4896021;29;20025;-77
2023/01/03 00:07:33;;;;;;;158.27;43.10;;;2.10;99.90;;;;;;4882409;29;20036;-77
2023/01/03 00:10:09;;;;;;;247.82;58.25;;;2.20;99.90;;;;;;4912274;29;20025;-77
2023/01/03 00:12:36;;;;;;;391.95;77.00;;;2.30;99.90;;;;;;4896815;29;20028;-77
2023/01/03 00:15:02;;;;;;;275.08;62.97;;;2.40;99.90;;;;;;4896438;29;20406;-78
2023/01/03 00:17:28;;;;;;;330.20;74.13;;;2.40;99.90;;;;;;4881050;29;20047;-78
2023/01/03 00:19:54;;;;;;;258.30;58.70;;;2.40;99.90;;;;;;4881832;29;20022;-77
2023/01/03 00:22:20;;;;;;;340.67;70.35;;;2.50;99.90;;;;;;4880774;29;20045;-77
2023/01/03 00:24:47;;;;;;;332.42;73.03;;;2.40;99.90;;;;;;4881908;29;20112;-77
2023/01/03 00:27:14;;;;;;;113.70;35.78;;;2.40;99.90;;;;;;4880864;29;20640;-77
2023/01/03 00:29:40;;;;;;;301.65;62.58;;;2.40;99.90;;;;;;4881907;29;20025;-78
2023/01/03 00:32:06;;;;;;;381.83;76.95;;;2.50;99.90;;;;;;4881595;29;20056;-77
2023/01/03 00:34:33;;;;;;;334.00;67.55;;;2.50;99.90;;;;;;4881653;29;20025;-77
2023/01/03 00:36:59;;;;;;;250.45;57.90;;;2.50;99.90;;;;;;4895440;29;20021;-77
2023/01/03 00:39:25;;;;;;;322.88;62.72;;;2.50;99.90;;;;;;4896208;29;20477;-78
2023/01/03 00:41:52;;;;;;;92.22;34.78;;;2.50;99.90;;;;;;4880223;29;20088;-77
2023/01/03 00:44:18;;;;;;;395.50;77.70;;;2.50;99.90;;;;;;4896159;29;20395;-78
2023/01/03 00:46:44;;;;;;;322.75;63.08;;;2.60;99.90;;;;;;4880274;29;20029;-77
2023/01/03 00:49:10;;;;;;;334.08;64.30;;;2.60;99.90;;;;;;4880486;29;20029;-77
2023/01/03 00:51:39;;;;;;;114.82;34.97;;;2.70;99.90;;;;;;4881459;29;20037;-77
2023/01/03 00:54:07;;;;;;;249.32;56.67;;;2.70;99.90;;;;;;4881650;29;20029;-78
2023/01/03 00:56:38;;;;;;;159.18;58.60;;;2.70;99.90;;;;;;4881433;29;20044;-77
2023/01/03 00:59:04;;;;;;;312.27;72.80;;;2.70;99.90;;;;;;4895922;29;20455;-77
2023/01/03 01:01:34;;;;;;;288.10;70.65;;;2.50;99.90;;;;;;4880795;29;20387;-77
2023/01/03 01:04:11;;;;;;;193.07;51.40;;;2.50;99.90;;;;;;4896277;29;20028;-77
2023/01/03 01:06:46;;;;;;;323.48;67.97;;;2.50;99.90;;;;;;4883424;29;20368;-77
2023/01/03 01:09:18;;;;;;;211.73;51.50;;;2.40;99.90;;;;;;4895672;29;20029;-77
2023/01/03 01:11:44;;;;;;;249.70;64.07;;;2.40;99.90;;;;;;4881020;29;20112;-78
2023/01/03 01:14:20;;;;;;;326.63;76.80;;;2.40;99.90;;;;;;4879877;29;20115;-78
2023/01/03 01:16:49;;;;;;;157.93;54.05;;;2.30;99.90;;;;;;4880917;29;20036;-78
2023/01/03 01:19:15;;;;;;;130.52;52.28;;;2.10;99.90;;;;;;4881048;29;20029;-77
2023/01/03 01:21:42;;;;;;;194.50;61.78;;;2.00;99.90;;;;;;4883205;29;20108;-77
2023/01/03 01:24:07;;;;;;;158.52;54.78;;;2.00;99.90;;;;;;4899863;29;20032;-77
2023/01/03 01:26:33;;;;;;;129.13;52.53;;;1.90;99.90;;;;;;4882709;29;20027;-77
2023/01/03 01:28:59;;;;;;;184.48;59.35;;;1.80;99.90;;;;;;4899720;29;20483;-77
2023/01/03 01:31:26;;;;;;;166.35;60.53;;;1.70;99.90;;;;;;4899480;29;20479;-78
2023/01/03 01:33:53;;;;;;;127.15;52.75;;;1.70;99.90;;;;;;4899205;29;20028;-78
2023/01/03 01:36:21;;;;;;;89.10;42.22;;;1.70;99.90;;;;;;4882262;29;20037;-77
2023/01/03 01:38:55;;;;;;;116.45;43.40;;;1.70;99.90;;;;;;4882380;29;20032;-77
2023/01/03 01:44:38;;;;;;;289.73;68.43;;;1.80;99.90;;;;;;4899820;29;20410;-77
2023/01/03 01:47:09;;;;;;;88.35;35.00;;;1.90;99.90;;;;;;4881805;29;20029;-77
2023/01/03 01:49:35;;;;;;;151.60;45.03;;;2.10;99.90;;;;;;4882094;29;20455;-78
2023/01/03 01:52:02;;;;;;;115.30;34.78;;;2.20;99.90;;;;;;4898797;29;20111;-77
2023/01/03 01:54:28;;;;;;;72.72;30.77;;;2.20;99.90;;;;;;4897808;29;20064;-77
2023/01/03 01:56:54;;;;;;;88.50;32.45;;;2.40;99.90;;;;;;4897711;29;20033;-77
2023/01/03 01:59:19;;;;;;;80.07;31.42;;;2.50;99.90;;;;;;4882398;29;20028;-78
2023/01/03 02:01:47;;;;;;;69.35;29.92;;;2.70;99.90;;;;;;4899222;29;20088;-78
2023/01/03 02:04:20;;;;;;;76.80;31.60;;;2.80;99.90;;;;;;4914822;29;20107;-78
2023/01/03 02:06:46;;;;;;;95.53;35.75;;;2.90;99.90;;;;;;4879631;29;20137;-78
2023/01/03 02:09:12;;;;;;;107.00;45.53;;;2.90;99.90;;;;;;4880364;29;20104;-78
2023/01/03 02:15:05;;;;;;;259.48;95.78;;;3.00;99.90;;;;;;4898902;29;20068;-78
2023/01/03 02:17:37;;;;;;;533.15;178.93;;;2.90;99.90;;;;;;4899003;29;20028;-78
2023/01/03 02:20:08;;;;;;;310.60;86.07;;;2.90;99.90;;;;;;4881267;29;20029;-79
2023/01/03 02:23:11;;;;;;;174.80;57.88;;;2.90;99.90;;;;;;4898453;29;20048;-79
2023/01/03 02:25:55;;;;;;;298.38;66.10;;;2.90;99.90;;;;;;4881448;29;20029;-78
2023/01/03 02:28:40;;;;;;;268.73;58.65;;;2.90;99.90;;;;;;4898888;29;20120;-79
2023/01/03 02:31:27;;;;;;;155.45;44.10;;;2.90;99.90;;;;;;4890639;29;20127;-78
2023/01/03 02:34:11;;;;;;;91.90;35.70;;;3.00;99.90;;;;;;4898545;29;20112;-79
2023/01/03 02:36:49;;;;;;;191.98;62.35;;;3.00;99.90;;;;;;4881506;29;20044;-79
2023/01/03 02:39:57;;;;;;;204.27;68.47;;;3.00;99.90;;;;;;4881683;29;20080;-78
2023/01/03 02:43:01;;;;;;;144.82;54.67;;;2.90;99.90;;;;;;4854897;29;20483;-78
2023/01/03 02:45:33;;;;;;;;;;;3.00;99.90;;;;;;4898613;29;20034;-78
2023/01/03 02:48:23;;;;;;;212.88;73.18;;;3.00;99.90;;;;;;4897309;29;19994;-78
2023/01/03 02:50:52;;;;;;;323.73;96.97;;;3.10;99.90;;;;;;4881229;29;20028;-78
2023/01/03 02:53:27;;;;;;;587.05;184.48;;;3.00;99.90;;;;;;4898526;29;20020;-78
2023/01/03 02:55:57;;;;;;;610.83;170.15;;;3.00;99.90;;;;;;4897964;29;20037;-78
2023/01/03 02:58:27;;;;;;;376.33;96.60;;;3.00;99.90;;;;;;4912549;29;20035;-78
2023/01/03 03:00:54;;;;;;;355.88;77.32;;;3.00;99.90;;;;;;4881222;29;20024;-78
2023/01/03 03:03:26;;;;;;;99.28;38.63;;;3.10;99.90;;;;;;4891851;29;20035;-78
2023/01/03 03:06:26;;;;;;;123.68;45.20;;;3.10;99.90;;;;;;4905990;29;20494;-78
2023/01/03 03:08:52;;;;;;;104.82;40.30;;;3.10;99.90;;;;;;4881461;29;20120;-78
2023/01/03 03:14:21;;;;;;;77.47;33.33;;;3.30;99.90;;;;;;4898345;29;20031;-78
2023/01/03 03:16:52;;;;;;;114.80;53.30;;;3.40;99.90;;;;;;4897667;29;20040;-78
2023/01/03 03:25:32;;;;;;;87.97;38.30;;;3.40;99.90;;;;;;4897357;29;20112;-77
2023/01/03 03:30:49;;;;;;;97.55;40.20;;;3.30;99.90;;;;;;4897966;29;20466;-78
2023/01/03 03:33:18;;;;;;;225.38;91.38;;;3.30;99.90;;;;;;4898032;29;20033;-77
2023/01/03 03:35:53;;;;;;;83.60;39.55;;;3.30;99.90;;;;;;4880982;29;20491;-77
2023/01/03 03:38:28;;;;;;;74.38;33.65;;;3.30;99.90;;;;;;4881313;29;20020;-79
2023/01/03 03:47:33;;;;;;;64.53;28.70;;;3.50;99.90;;;;;;4898121;29;20040;-79
2023/01/03 03:50:13;;;;;;;64.63;31.38;;;3.60;99.90;;;;;;4897436;29;20039;-79
2023/01/03 03:52:43;;;;;;;81.88;33.53;;;3.60;99.90;;;;;;4880730;29;20029;-79
2023/01/03 03:55:15;;;;;;;75.22;33.63;;;3.60;99.90;;;;;;4877541;29;20093;-79
2023/01/03 03:57:56;;;;;;;67.25;30.17;;;3.70;99.90;;;;;;4886636;29;20479;-80
2023/01/03 04:00:26;;;;;;;67.15;30.08;;;3.70;99.90;;;;;;4897863;29;20458;-79
2023/01/03 04:02:54;;;;;;;63.17;31.05;;;3.70;99.90;;;;;;4887783;29;20076;-79
2023/01/03 04:05:23;;;;;;;114.85;60.22;;;3.70;99.90;;;;;;4889625;29;20017;-79
2023/01/03 04:07:49;;;;;;;217.15;102.78;;;3.80;99.90;;;;;;4878977;29;20056;-79
2023/01/03 04:10:19;;;;;;;75.38;36.88;;;3.80;99.90;;;;;;4866986;29;20025;-79
2023/01/03 04:12:48;;;;;;;84.43;36.25;;;3.80;99.90;;;;;;4884573;29;20024;-79
2023/01/03 04:15:14;;;;;;;75.95;32.42;;;3.80;99.90;;;;;;4900537;29;20033;-79
2023/01/03 04:17:40;;;;;;;67.93;31.33;;;3.80;99.90;;;;;;4901067;29;20556;-79
2023/01/03 04:20:06;;;;;;;74.90;32.13;;;3.90;99.90;;;;;;4884086;29;20056;-79
2023/01/03 04:22:32;;;;;;;71.60;33.92;;;3.90;99.90;;;;;;4899548;29;20462;-79
2023/01/03 04:24:57;;;;;;;66.93;31.83;;;3.80;99.90;;;;;;4900478;29;20068;-79
2023/01/03 04:27:23;;;;;;;66.80;33.17;;;3.90;99.90;;;;;;4900302;29;20021;-79
2023/01/03 04:29:48;;;;;;;74.35;36.25;;;3.90;99.90;;;;;;4900370;29;20515;-79
2023/01/03 04:32:14;;;;;;;126.70;66.78;;;3.90;99.90;;;;;;4884070;29;20029;-78
2023/01/03 04:34:40;;;;;;;121.38;60.50;;;3.90;99.90;;;;;;4883667;29;20064;-78
2023/01/03 04:37:05;;;;;;;101.55;44.47;;;3.80;99.90;;;;;;4900197;29;20032;-78
2023/01/03 04:39:31;;;;;;;72.93;33.65;;;3.80;99.90;;;;;;4900520;29;20107;-78
2023/01/03 04:41:56;;;;;;;64.38;32.78;;;3.80;99.90;;;;;;4900361;29;20109;-78
2023/01/03 04:44:22;;;;;;;80.38;32.30;;;3.80;99.90;;;;;;4900620;29;20036;-78
2023/01/03 04:46:47;;;;;;;71.57;33.95;;;3.80;99.90;;;;;;4900118;29;20116;-78
2023/01/03 04:49:13;;;;;;;75.32;36.63;;;3.80;99.90;;;;;;4883730;29;20036;-78
2023/01/03 04:51:38;;;;;;;69.00;32.42;;;3.80;99.90;;;;;;4882923;29;20390;-78
2023/01/03 04:54:05;;;;;;;69.53;33.00;;;3.80;99.90;;;;;;4900373;29;20064;-78
2023/01/03 04:56:33;;;;;;;70.05;30.70;;;3.80;99.90;;;;;;4879917;29;20043;-78
2023/01/03 04:59:00;;;;;;;65.05;31.75;;;3.80;99.90;;;;;;4898405;29;20021;-78
2023/01/03 05:01:26;;;;;;;74.28;32.00;;;3.80;99.90;;;;;;4883306;29;20029;-78
2023/01/03 05:03:59;;;;;;;67.57;35.72;;;3.80;99.90;;;;;;4915164;29;20443;-78
2023/01/03 05:06:25;;;;;;;72.38;36.92;;;3.80;99.90;;;;;;4918992;29;20020;-79
2023/01/03 05:08:51;;;;;;;268.70;101.18;;;3.80;99.90;;;;;;4881148;29;20033;-79
2023/01/03 05:11:16;;;;;;;171.15;69.43;;;3.80;99.90;;;;;;4864542;29;20043;-78
2023/01/03 05:13:42;;;;;;;194.20;76.95;;;3.80;99.90;;;;;;4896362;29;20063;-78
2023/01/03 05:16:13;;;;;;;509.48;194.27;;;3.80;99.90;;;;;;4882821;29;20044;-78
2023/01/03 05:18:39;;;;;;;202.88;77.75;;;3.70;99.90;;;;;;4899430;29;20084;-78
2023/01/03 05:26:46;;;;;;;62.45;31.70;;;3.70;99.90;;;;;;4899632;29;20599;-79
2023/01/03 05:29:15;;;;;;;72.95;34.60;;;3.70;99.90;;;;;;4899899;29;20841;-79
2023/01/03 05:31:40;;;;;;;199.07;79.70;;;3.70;99.90;;;;;;4882676;29;20044;-78
2023/01/03 05:34:06;;;;;;;211.98;79.18;;;3.70;99.90;;;;;;4899701;29;20390;-78
2023/01/03 05:36:32;;;;;;;132.60;56.30;;;3.70;99.90;;;;;;4882385;29;20040;-78
2023/01/03 05:38:57;;;;;;;135.57;53.08;;;3.70;99.90;;;;;;4899482;29;20025;-78
2023/01/03 05:44:07;;;;;;;132.45;51.58;;;3.70;99.90;;;;;;4899844;29;20056;-78
2023/01/03 05:46:33;;;;;;;409.27;151.63;;;3.70;99.90;;;;;;4898980;29;20029;-79
2023/01/03 05:48:58;;;;;;;527.78;212.13;;;3.70;99.90;;;;;;4882186;29;20028;-79
2023/01/03 05:51:24;;;;;;;530.78;204.73;;;3.70;99.90;;;;;;4897990;29;20035;-79
2023/01/03 05:53:50;;;;;;;1272.18;527.92;;;3.70;99.90;;;;;;4882104;29;20124;-79
2023/01/03 05:56:16;;;;;;;1014.45;440.73;;;3.70;99.90;;;;;;4878895;29;20407;-79
2023/01/03 05:58:42;;;;;;;1481.30;588.78;;;3.70;99.90;;;;;;4894740;29;20025;-78
2023/01/03 06:01:09;;;;;;;692.33;292.35;;;3.70;99.90;;;;;;4892815;29;20436;-79
2023/01/03 06:03:34;;;;;;;174.45;66.43;;;3.70;99.90;;;;;;4895589;29;20076;-79
2023/01/03 06:06:08;;;;;;;225.00;85.95;;;3.70;99.90;;;;;;4904620;29;20040;-79
2023/01/03 06:08:35;;;;;;;475.10;170.13;;;3.70;99.90;;;;;;4882247;29;20119;-79
2023/01/03 06:11:06;;;;;;;438.23;153.38;;;3.80;99.90;;;;;;4881715;29;20036;-79
2023/01/03 06:13:31;;;;;;;500.77;184.23;;;3.70;99.90;;;;;;4882121;29;20028;-79
2023/01/03 06:19:07;;;;;;;567.53;206.85;;;3.80;99.90;;;;;;4898746;29;20046;-79
2023/01/03 06:21:34;;;;;;;536.10;186.98;;;3.70;99.90;;;;;;4881418;29;20029;-78
2023/01/03 06:24:00;;;;;;;198.93;70.95;;;3.70;99.90;;;;;;4898849;29;20032;-79
2023/01/03 06:26:26;;;;;;;109.97;44.90;;;3.70;99.90;;;;;;4898293;29;20033;-79
2023/01/03 06:28:52;;;;;;;126.30;48.92;;;3.70;99.90;;;;;;4898601;29;20096;-79
2023/01/03 06:31:18;;;;;;;122.40;47.45;;;3.70;99.90;;;;;;4897016;29;20031;-78
2023/01/03 06:33:44;;;;;;;137.75;52.55;;;3.70;99.90;;;;;;4881310;29;20073;-78
2023/01/03 06:36:12;;;;;;;115.38;47.30;;;3.70;99.90;;;;;;4898066;29;20037;-78
2023/01/03 06:38:38;;;;;;;327.83;112.20;;;3.70;99.90;;;;;;4881305;29;20021;-78
2023/01/03 06:41:04;;;;;;;530.42;188.98;;;3.70;99.90;;;;;;4898482;29;20036;-77
2023/01/03 06:43:30;;;;;;;384.00;129.25;;;3.70;99.90;;;;;;4880744;29;20025;-77
2023/01/03 06:54:23;;;;;;;118.70;49.00;;;3.80;99.90;;;;;;4897405;29;20079;-78
2023/01/03 06:56:50;;;;;;;150.63;59.63;;;3.90;99.90;;;;;;4899207;29;20033;-79
2023/01/03 06:59:16;;;;;;;306.67;114.75;;;4.00;99.90;;;;;;4881399;29;20029;-80
2023/01/03 07:01:42;;;;;;;207.63;85.28;;;4.00;99.90;;;;;;4898046;29;20067;-80
2023/01/03 07:04:08;;;;;;;77.20;42.92;;;4.00;99.90;;;;;;4899265;29;20489;-79
2023/01/03 07:06:34;;;;;;;74.90;38.75;;;4.00;99.90;;;;;;4900511;29;20056;-79
2023/01/03 07:08:59;;;;;;;60.75;33.17;;;4.10;99.90;;;;;;4881049;29;20471;-79
2023/01/03 07:11:25;;;;;;;56.15;29.73;;;4.10;99.90;;;;;;4881060;29;20084;-80
2023/01/03 07:13:57;;;;;;;85.10;42.92;;;4.20;99.90;;;;;;4881617;29;20036;-80
2023/01/03 07:16:32;;;;;;;81.15;39.58;;;4.20;99.90;;;;;;4881374;29;20044;-79
2023/01/03 07:18:58;;;;;;;73.57;39.00;;;4.20;99.90;;;;;;4881244;29;20101;-79
2023/01/03 07:21:25;;;;;;;87.97;41.00;;;4.30;99.90;;;;;;4896698;29;20028;-79
2023/01/03 07:23:52;;;;;;;102.43;47.85;;;4.30;99.90;;;;;;4897262;29;20032;-79
2023/01/03 07:26:18;;;;;;;205.02;88.65;;;4.30;99.90;;;;;;4897799;29;20047;-79
2023/01/03 07:28:43;;;;;;;184.15;77.43;;;4.30;99.90;;;;;;4897480;29;20033;-79
2023/01/03 07:31:09;;;;;;;137.30;63.75;;;4.30;99.90;;;;;;4896181;29;20056;-79
2023/01/03 07:33:38;;;;;;;109.03;51.72;;;4.30;99.90;;;;;;4897497;29;20031;-79
2023/01/03 07:36:14;;;;;;;106.78;48.47;;;4.40;99.90;;;;;;4880481;29;20044;-79
2023/01/03 07:38:41;;;;;;;95.90;46.35;;;4.30;99.90;;;;;;4892119;29;20029;-79
2023/01/03 07:41:07;;;;;;;173.95;72.53;;;4.40;99.90;;;;;;4895038;29;20021;-79
2023/01/03 07:43:38;;;;;;;207.35;93.55;;;4.40;99.90;;;;;;4879480;29;20127;-79
2023/01/03 07:46:06;;;;;;;77.60;41.22;;;4.40;99.90;;;;;;4897183;29;20046;-79
2023/01/03 07:48:33;;;;;;;84.78;46.92;;;4.40;99.90;;;;;;4899438;29;20036;-79
2023/01/03 07:50:58;;;;;;;95.40;51.78;;;4.40;99.90;;;;;;4897609;29;20028;-79
2023/01/03 07:53:24;;;;;;;306.38;139.95;;;4.40;99.90;;;;;;4897234;29;20436;-79
2023/01/03 07:55:50;;;;;;;159.30;80.25;;;4.40;99.90;;;;;;4896673;29;20064;-79
2023/01/03 07:58:15;;;;;;;86.35;44.05;;;4.50;99.90;;;;;;4893243;29;20103;-79
2023/01/03 08:00:41;;;;;;;53.65;30.90;;;4.50;99.90;;;;;;4890881;29;20032;-79
2023/01/03 08:03:08;;;;;;;58.35;32.65;;;4.50;99.90;;;;;;4893309;29;20021;-79
2023/01/03 08:05:34;;;;;;;55.83;28.98;;;4.50;99.90;;;;;;4873765;29;20555;-80
2023/01/03 08:08:01;;;;;;;48.33;26.98;;;4.60;99.90;;;;;;4890423;29;20104;-79
2023/01/03 08:13:16;;;;;;;36.00;20.70;;;4.80;99.90;;;;;;4895368;29;20387;-79
2023/01/03 08:15:47;;;;;;;35.15;19.85;;;4.90;99.90;;;;;;4890666;29;20376;-80
2023/01/03 08:18:15;;;;;;;37.95;19.80;;;5.00;99.90;;;;;;4892357;29;20040;-80
2023/01/03 08:20:41;;;;;;;34.70;19.23;;;5.10;99.90;;;;;;4872874;29;20036;-80
2023/01/03 08:23:07;;;;;;;30.23;18.98;;;5.20;99.90;;;;;;4892885;29;20044;-79
2023/01/03 08:25:33;;;;;;;37.28;19.13;;;5.20;99.90;;;;;;4874243;29;20368;-79
2023/01/03 08:27:59;;;;;;;33.60;18.77;;;5.30;99.90;;;;;;4905552;29;20053;-80
2023/01/03 08:30:25;;;;;;;38.70;20.40;;;5.30;99.90;;;;;;4872884;29;20032;-80
2023/01/03 08:32:52;;;;;;;30.95;19.17;;;5.40;99.90;;;;;;4907126;29;20024;-79
2023/01/03 08:35:19;;;;;;;32.75;18.30;;;5.40;99.90;;;;;;4882284;29;20566;-80
2023/01/03 08:37:45;;;;;;;25.50;16.33;;;5.40;99.90;;;;;;4882844;29;20032;-80
2023/01/03 08:40:13;;;;;;;28.45;18.00;;;5.50;99.90;;;;;;4891801;29;20491;-80
2023/01/03 08:42:38;;;;;;;26.98;15.25;;;5.50;99.90;;;;;;4883125;29;20024;-80
2023/01/03 08:45:10;;;;;;;28.60;15.57;;;5.50;99.90;;;;;;4898555;29;20068;-80
2023/01/03 08:47:35;;;;;;;26.27;15.30;;;5.60;99.90;;;;;;4900377;29;20112;-79
2023/01/03 08:50:02;;;;;;;25.60;15.85;;;5.60;99.90;;;;;;4900563;29;20064;-79
2023/01/03 08:52:27;;;;;;;22.90;13.40;;;5.60;99.90;;;;;;4900323;29;20428;-79
2023/01/03 08:54:53;;;;;;;27.85;14.93;;;5.70;99.90;;;;;;4900121;29;20084;-79
2023/01/03 08:57:18;;;;;;;23.75;12.65;;;5.70;99.90;;;;;;4883295;29;20059;-79
2023/01/03 08:59:44;;;;;;;19.00;11.95;;;5.80;99.90;;;;;;4900000;29;20534;-79
2023/01/03 09:02:10;;;;;;;19.25;11.68;;;5.80;99.90;;;;;;4903346;29;20027;-78
2023/01/03 09:04:35;;;;;;;21.48;11.40;;;5.90;99.90;;;;;;4901246;29;20072;-79
2023/01/03 09:07:01;;;;;;;18.92;11.32;;;5.90;99.90;;;;;;4900267;29;20028;-78
2023/01/03 09:09:26;;;;;;;27.60;15.80;;;6.00;99.90;;;;;;4900005;29;20463;-80
2023/01/03 09:11:52;;;;;;;15.02;10.07;;;6.00;99.90;;;;;;4898494;29;20024;-80
2023/01/03 09:14:17;;;;;;;18.25;10.80;;;6.10;99.90;;;;;;4900287;29;20029;-80
2023/01/03 09:16:43;;;;;;;23.73;14.75;;;6.10;99.90;;;;;;4899819;29;20049;-80
2023/01/03 09:19:09;;;;;;;17.10;9.65;;;6.20;99.90;;;;;;4881828;29;20033;-80
2023/01/03 09:21:35;;;;;;;13.00;9.00;;;6.20;99.90;;;;;;4898643;29;20036;-80
2023/01/03 09:24:00;;;;;;;15.50;9.88;;;6.30;99.90;;;;;;4882003;29;20364;-81
2023/01/03 09:26:26;;;;;;;11.77;7.28;;;6.40;99.90;;;;;;4899016;29;20088;-81
2023/01/03 09:28:51;;;;;;;18.35;10.98;;;6.40;99.90;;;;;;4881546;29;20111;-81
2023/01/03 09:31:17;;;;;;;8.45;6.22;;;6.50;99.90;;;;;;4898944;29;20025;-80
2023/01/03 09:33:43;;;;;;;17.77;11.20;;;6.60;99.90;;;;;;4899200;29;20080;-81
2023/01/03 09:36:08;;;;;;;13.40;6.68;;;6.60;99.90;;;;;;4882745;29;20494;-80
2023/01/03 09:38:34;;;;;;;13.18;8.98;;;6.70;99.90;;;;;;4881471;29;20024;-80
2023/01/03 09:41:04;;;;;;;10.40;6.72;;;6.80;99.90;;;;;;4899314;29;20029;-80
2023/01/03 09:43:42;;;;;;;13.93;9.95;;;6.80;99.90;;;;;;4899856;29;20391;-81
2023/01/03 09:46:25;;;;;;;8.43;6.78;;;6.90;99.90;;;;;;4897793;29;20028;-80
2023/01/03 09:48:54;;;;;;;13.00;7.32;;;7.00;99.90;;;;;;4882508;29;20028;-81
2023/01/03 10:05:45;;;;;;;6.50;4.85;;;7.70;99.90;;;;;;4897714;29;20093;-80
2023/01/03 10:08:37;;;;;;;5.05;4.10;;;7.80;99.90;;;;;;4894418;29;20559;-80
2023/01/03 10:11:14;;;;;;;5.78;4.38;;;7.80;99.90;;;;;;4897862;29;20016;-80
2023/01/03 10:14:05;;;;;;;5.38;3.20;;;7.90;99.90;;;;;;4881596;29;20439;-80
2023/01/03 10:16:40;;;;;;;3.67;3.17;;;7.90;99.90;;;;;;4880931;29;20043;-80
2023/01/03 10:19:20;;;;;;;4.25;3.85;;;7.90;99.90;;;;;;4881301;29;20055;-79
2023/01/03 10:22:07;;;;;;;3.40;3.10;;;7.90;99.90;;;;;;4897721;29;20049;-80
2023/01/03 10:24:45;;;;;;;4.38;3.22;;;7.90;99.90;;;;;;4878151;29;20123;-80
2023/01/03 10:27:20;;;;;;;5.15;3.60;;;8.00;99.90;;;;;;4880439;29;20025;-80
2023/01/03 10:29:48;;;;;;;4.00;3.55;;;8.00;99.90;;;;;;4897809;29;20052;-80
2023/01/03 10:32:41;;;;;;;5.72;3.75;;;8.00;99.90;;;;;;4880406;29;20054;-80
2023/01/03 10:35:31;;;;;;;3.92;3.13;;;8.10;99.90;;;;;;4880252;29;20043;-80
2023/01/03 10:37:57;;;;;;;5.15;2.80;;;8.10;99.90;;;;;;4896269;29;20036;-80
2023/01/03 10:40:48;;;;;;;3.88;2.88;;;8.20;99.90;;;;;;4896352;29;20387;-81
2023/01/03 10:43:28;;;;;;;2.35;2.15;;;8.20;99.90;;;;;;4897404;29;20111;-80
2023/01/03 10:46:00;;;;;;;2.45;1.88;;;8.30;99.90;;;;;;4897058;29;20111;-80
2023/01/03 10:48:40;;;;;;;4.72;2.75;;;8.40;99.90;;;;;;4897269;29;20032;-80
2023/01/03 10:51:27;;;;;;;2.22;1.88;;;8.50;99.90;;;;;;4896527;29;20066;-80
2023/01/03 10:53:55;;;;;;;1.90;1.80;;;8.70;93.90;;;;;;4897676;29;20483;-80
2023/01/03 10:56:23;;;;;;;1.65;1.55;;;8.70;82.60;;;;;;4879915;29;20123;-81
2023/01/03 10:59:15;;;;;;;5.25;3.97;;;8.90;83.90;;;;;;4881364;29;20021;-81
2023/01/03 11:02:05;;;;;;;2.72;1.77;;;9.00;86.00;;;;;;4877807;29;20155;-81
2023/01/03 11:04:31;;;;;;;2.22;2.00;;;9.00;79.70;;;;;;4881525;29;20073;-81
2023/01/03 11:07:12;;;;;;;2.10;1.90;;;8.90;82.20;;;;;;4896410;29;20036;-81
2023/01/03 11:09:55;;;;;;;6.95;4.97;;;8.80;84.80;;;;;;4897866;29;20427;-81
2023/01/03 11:12:27;;;;;;;;;;;8.80;89.20;;;;;;4897928;29;20061;-81
2023/01/03 11:14:55;;;;;;;25.77;13.57;;;8.70;90.40;;;;;;4895619;29;19914;-81
2023/01/03 11:17:23;;;;;;;29.13;12.35;;;8.60;91.40;;;;;;4880664;29;20024;-81
2023/01/03 11:19:50;;;;;;;16.73;8.32;;;8.60;93.30;;;;;;4880212;29;20309;-80
2023/01/03 11:22:39;;;;;;;11.27;7.10;;;8.50;92.80;;;;;;4882557;29;20605;-80
2023/01/03 11:25:43;;;;;;;35.22;17.00;;;8.50;93.90;;;;;;4892628;29;20380;-81
2023/01/03 11:28:36;;;;;;;9.25;5.57;;;8.40;95.20;;;;;;4882286;29;20025;-80
2023/01/03 11:31:05;;;;;;;3.17;2.78;;;8.40;90.50;;;;;;4879879;29;20037;-80
2023/01/03 11:33:40;;;;;;;69.28;33.03;;;8.40;91.50;;;;;;4879906;29;20040;-81
2023/01/03 11:36:43;;;;;;;10.57;5.72;;;8.40;92.10;;;;;;4884818;29;20494;-81
2023/01/03 11:39:30;;;;;;;4.03;2.83;;;8.40;93.00;;;;;;4884913;29;20479;-81
2023/01/03 11:42:20;;;;;;;8.30;5.13;;;8.40;94.20;;;;;;4884654;29;20431;-80
2023/01/03 11:44:49;;;;;;;3.85;2.97;;;8.50;93.10;;;;;;4884846;29;20100;-81
2023/01/03 11:48:08;;;;;;;3.28;2.97;;;8.70;91.70;;;;;;4884611;29;20032;-80
2023/01/03 11:51:16;;;;;;;2.25;2.00;;;8.80;89.70;;;;;;4881999;29;20037;-81
2023/01/03 11:54:00;;;;;;;1.85;1.75;;;8.80;88.50;;;;;;4894175;29;20064;-81
2023/01/03 11:56:34;;;;;;;2.28;2.08;;;8.80;86.70;;;;;;4884493;29;20033;-81
2023/01/03 11:59:21;;;;;;;2.10;1.83;;;8.70;87.90;;;;;;4884686;29;20021;-81
2023/01/03 12:02:08;;;;;;;2.65;2.45;;;8.60;90.70;;;;;;4885578;29;20025;-81
2023/01/03 12:05:19;;;;;;;3.33;2.25;;;8.60;92.60;;;;;;4919527;29;20016;-81
2023/01/03 12:07:59;;;;;;;3.40;3.10;;;8.50;94.00;;;;;;4884260;29;20032;-81
2023/01/03 12:10:45;;;;;;;3.88;2.80;;;8.40;96.50;;;;;;4901304;29;20190;-80
2023/01/03 12:13:33;;;;;;;5.13;2.55;;;8.40;97.50;;;;;;4900418;29;20041;-81
2023/01/03 12:16:07;;;;;;;4.03;2.45;;;8.40;97.70;;;;;;4884080;29;20048;-81
2023/01/03 12:18:39;;;;;;;4.55;3.38;;;8.30;96.80;;;;;;4899717;29;20025;-80
2023/01/03 12:21:32;;;;;;;3.53;2.92;;;8.40;98.50;;;;;;4884094;29;20024;-81
2023/01/03 12:24:12;;;;;;;4.45;3.33;;;8.40;99.90;;;;;;4883739;29;20047;-81
2023/01/03 12:26:41;;;;;;;3.53;2.30;;;8.50;99.90;;;;;;4900828;29;20050;-80
2023/01/03 12:29:16;;;;;;;2.67;2.47;;;8.50;99.90;;;;;;4884173;29;20076;-80
2023/01/03 12:32:07;;;;;;;3.95;3.13;;;8.50;97.00;;;;;;4899917;29;20462;-80
2023/01/03 12:35:14;;;;;;;3.97;3.58;;;8.50;97.70;;;;;;4879857;29;20072;-81
2023/01/03 12:37:44;;;;;;;5.32;3.70;;;8.50;98.00;;;;;;4901060;29;20033;-81
2023/01/03 12:40:34;;;;;;;6.15;5.30;;;8.50;97.60;;;;;;4900842;29;20024;-81
2023/01/03 12:43:12;;;;;;;6.65;5.18;;;8.40;99.20;;;;;;4900626;29;20024;-81
2023/01/03 12:46:03;;;;;;;5.80;4.03;;;8.40;99.90;;;;;;4883917;29;20046;-80
2023/01/03 12:48:52;;;;;;;5.30;3.60;;;8.40;99.90;;;;;;4883307;29;20075;-81
2023/01/03 12:51:20;;;;;;;7.13;5.32;;;8.20;99.90;;;;;;4883765;29;20067;-81
2023/01/03 12:54:24;;;;;;;12.57;8.50;;;8.10;99.90;;;;;;4883466;29;20029;-81
2023/01/03 12:57:02;;;;;;;3.38;2.70;;;8.00;99.90;;;;;;4883276;29;20036;-80
2023/01/03 13:00:06;;;;;;;3.47;2.53;;;7.90;99.90;;;;;;4883742;29;20534;-81
2023/01/03 13:02:53;;;;;;;3.50;3.20;;;7.90;99.90;;;;;;4883819;29;20382;-80
2023/01/03 13:05:25;;;;;;;3.42;3.20;;;7.90;99.90;;;;;;4914842;29;20029;-81
2023/01/03 13:08:07;;;;;;;2.70;2.47;;;7.90;99.90;;;;;;4914576;29;20372;-80
2023/01/03 13:10:36;;;;;;;2.50;2.28;;;7.90;99.90;;;;;;4883474;29;20020;-81
2023/01/03 13:13:03;;;;;;;3.33;2.65;;;7.90;99.90;;;;;;4883025;29;20021;-80
2023/01/03 13:15:28;;;;;;;8.63;4.30;;;7.90;99.90;;;;;;4898480;29;20033;-80
2023/01/03 13:18:14;;;;;;;47.28;17.95;;;7.90;99.90;;;;;;4899883;29;20017;-81
2023/01/03 13:20:39;;;;;;;86.63;31.67;;;7.90;99.90;;;;;;4883091;29;20032;-80
2023/01/03 13:23:39;;;;;;;45.33;16.08;;;8.00;99.90;;;;;;4899884;29;20411;-80
2023/01/03 13:26:04;;;;;;;153.57;52.05;;;8.00;99.90;;;;;;4899951;29;20029;-81
2023/01/03 13:28:36;;;;;;;82.38;30.42;;;8.00;99.90;;;;;;4894508;29;20498;-82
2023/01/03 13:31:15;;;;;;;109.05;39.20;;;8.00;99.90;;;;;;4883052;29;20024;-81
2023/01/03 13:33:47;;;;;;;125.05;43.53;;;7.90;99.90;;;;;;4882791;29;20052;-81
2023/01/03 13:36:16;;;;;;;64.07;26.38;;;8.00;99.90;;;;;;4899709;29;20040;-82
2023/01/03 13:38:42;;;;;;;228.38;80.40;;;7.90;99.90;;;;;;4883037;29;20028;-81
2023/01/03 13:41:51;;;;;;;156.15;58.00;;;7.90;99.90;;;;;;4899420;29;20514;-81
2023/01/03 13:44:21;;;;;;;433.52;145.43;;;7.90;99.90;;;;;;4808411;29;20030;-81
2023/01/03 13:46:48;;;;;;;178.55;69.88;;;7.90;99.90;;;;;;4822135;29;20041;-81
2023/01/03 13:49:24;;;;;;;103.18;45.10;;;7.90;99.90;;;;;;4863053;29;20389;-80
2023/01/03 13:51:58;;;;;;;246.40;88.72;;;7.80;99.90;;;;;;4899381;29;20051;-80
2023/01/03 13:54:33;;;;;;;774.17;311.63;;;7.80;99.90;;;;;;4882832;29;20035;-80
2023/01/03 13:57:02;;;;;;;88.57;37.65;;;7.80;99.90;;;;;;4879618;29;20041;-80
2023/01/03 13:59:43;;;;;;;20.85;13.73;;;7.80;99.90;;;;;;4864078;29;20025;-80
2023/01/03 14:02:08;;;;;;;368.02;128.70;;;7.70;99.90;;;;;;4904421;29;20095;-80
2023/01/03 14:04:52;;;;;;;374.85;119.32;;;7.60;99.30;;;;;;4900353;29;20028;-80